sensor_id;sensor_type;location;lat;lon;timestamp;temperature;humidity
7646;DHT22;3864;48.180;14.178;2024-03-06T00:00:35;2.70;99.90
7646;DHT22;3864;48.180;14.178;2024-03-06T00:03:02;2.60;99.90
7646;DHT22;3864;48.180;14.178;2024-03-06T00:05:30;2.40;99.90
7646;DHT22;3864;48.180;14.178;2024-03-06T00:07:57;2.20;99.90
7646;DHT22;3864;48.180;14.178;2024-03-06T00:10:25;1.90;99.90
7646;DHT22;3864;48.180;14.178;2024-03-06T00:12:53;1.80;99.90
7646;DHT22;3864;48.180;14.178;2024-03-06T00:15:22;1.70;99.90
7646;DHT22;3864;48.180;14.178;2024-03-06T00:17:49;1.70;99.90
7646;DHT22;3864;48.180;14.178;2024-03-06T00:20:16;1.60;99.90
7646;DHT22;3864;48.180;14.178;2024-03-06T00:22:43;1.50;99.90
7646;DHT22;3864;48.180;14.178;2024-03-06T00:25:10;1.60;99.90
7646;DHT22;3864;48.180;14.178;2024-03-06T00:27:37;1.70;99.90
7646;DHT22;3864;48.180;14.178;2024-03-06T00:30:04;1.80;99.90
7646;DHT22;3864;48.180;14.178;2024-03-06T00:32:34;1.80;99.90
7646;DHT22;3864;48.180;14.178;2024-03-06T00:35:01;1.90;99.90
7646;DHT22;3864;48.180;14.178;2024-03-06T00:37:29;2.00;99.90
7646;DHT22;3864;48.180;14.178;2024-03-06T00:39:56;2.00;99.90
7646;DHT22;3864;48.180;14.178;2024-03-06T00:42:23;1.90;99.90
7646;DHT22;3864;48.180;14.178;2024-03-06T00:44:50;1.80;99.90
7646;DHT22;3864;48.180;14.178;2024-03-06T00:47:17;1.70;99.90
7646;DHT22;3864;48.180;14.178;2024-03-06T00:49:48;1.50;99.90
7646;DHT22;3864;48.180;14.178;2024-03-06T00:52:15;1.40;99.90
7646;DHT22;3864;48.180;14.178;2024-03-06T00:54:42;1.30;99.90
7646;DHT22;3864;48.180;14.178;2024-03-06T00:57:10;1.20;99.90
7646;DHT22;3864;48.180;14.178;2024-03-06T00:59:37;1.00;99.90
7646;DHT22;3864;48.180;14.178;2024-03-06T01:02:04;0.90;99.90
7646;DHT22;3864;48.180;14.178;2024-03-06T01:04:31;0.90;99.90
7646;DHT22;3864;48.180;14.178;2024-03-06T01:07:01;1.00;99.90
7646;DHT22;3864;48.180;14.178;2024-03-06T01:09:28;1.20;99.90
7646;DHT22;3864;48.180;14.178;2024-03-06T01:11:55;1.30;99.90
7646;DHT22;3864;48.180;14.178;2024-03-06T01:14:22;1.40;99.90
7646;DHT22;3864;48.180;14.178;2024-03-06T01:16:48;1.50;99.90
7646;DHT22;3864;48.180;14.178;2024-03-06T01:19:16;1.50;99.90
7646;DHT22;3864;48.180;14.178;2024-03-06T01:21:42;1.50;99.90
7646;DHT22;3864;48.180;14.178;2024-03-06T01:24:14;1.60;99.90
7646;DHT22;3864;48.180;14.178;2024-03-06T01:26:41;1.50;99.90
7646;DHT22;3864;48.180;14.178;2024-03-06T01:29:08;1.30;99.90
7646;DHT22;3864;48.180;14.178;2024-03-06T01:31:36;1.30;99.90
7646;DHT22;3864;48.180;14.178;2024-03-06T01:34:02;1.20;99.90
7646;DHT22;3864;48.180;14.178;2024-03-06T01:36:29;1.20;99.90
7646;DHT22;3864;48.180;14.178;2024-03-06T01:38:57;1.10;99.90
7646;DHT22;3864;48.180;14.178;2024-03-06T01:41:26;1.00;99.90
7646;DHT22;3864;48.180;14.178;2024-03-06T01:43:53;0.90;99.90
7646;DHT22;3864;48.180;14.178;2024-03-06T01:46:20;0.80;99.90
7646;DHT22;3864;48.180;14.178;2024-03-06T01:48:47;0.70;99.90
7646;DHT22;3864;48.180;14.178;2024-03-06T01:51:14;0.60;99.90
7646;DHT22;3864;48.180;14.178;2024-03-06T01:53:41;0.60;99.90
7646;DHT22;3864;48.180;14.178;2024-03-06T01:56:09;0.50;99.90
7646;DHT22;3864;48.180;14.178;2024-03-06T01:58:39;0.50;99.90
7646;DHT22;3864;48.180;14.178;2024-03-06T02:01:07;0.60;99.90
7646;DHT22;3864;48.180;14.178;2024-03-06T02:03:34;0.50;99.90
7646;DHT22;3864;48.180;14.178;2024-03-06T02:06:02;0.50;99.90
7646;DHT22;3864;48.180;14.178;2024-03-06T02:08:30;0.50;99.90
7646;DHT22;3864;48.180;14.178;2024-03-06T02:10:58;0.50;99.90
7646;DHT22;3864;48.180;14.178;2024-03-06T02:13:26;0.50;99.90
7646;DHT22;3864;48.180;14.178;2024-03-06T02:15:54;0.40;99.90
7646;DHT22;3864;48.180;14.178;2024-03-06T02:18:21;0.40;99.90
7646;DHT22;3864;48.180;14.178;2024-03-06T02:20:50;0.40;99.90
7646;DHT22;3864;48.180;14.178;2024-03-06T02:23:17;0.60;99.90
7646;DHT22;3864;48.180;14.178;2024-03-06T02:25:46;0.90;99.90
7646;DHT22;3864;48.180;14.178;2024-03-06T02:28:14;1.20;99.90
7646;DHT22;3864;48.180;14.178;2024-03-06T02:30:42;1.60;99.90
7646;DHT22;3864;48.180;14.178;2024-03-06T02:33:10;1.90;99.90
7646;DHT22;3864;48.180;14.178;2024-03-06T02:35:37;2.10;99.90
7646;DHT22;3864;48.180;14.178;2024-03-06T02:38:07;2.20;99.90
7646;DHT22;3864;48.180;14.178;2024-03-06T02:40:35;2.20;99.90
7646;DHT22;3864;48.180;14.178;2024-03-06T02:43:02;2.30;99.90
7646;DHT22;3864;48.180;14.178;2024-03-06T02:45:30;2.20;99.90
7646;DHT22;3864;48.180;14.178;2024-03-06T02:47:57;2.20;99.90
7646;DHT22;3864;48.180;14.178;2024-03-06T02:50:24;2.30;99.90
7646;DHT22;3864;48.180;14.178;2024-03-06T02:52:51;2.30;99.90
7646;DHT22;3864;48.180;14.178;2024-03-06T02:55:22;2.30;99.90
7646;DHT22;3864;48.180;14.178;2024-03-06T02:57:49;2.30;99.90
7646;DHT22;3864;48.180;14.178;2024-03-06T03:00:16;2.30;99.90
7646;DHT22;3864;48.180;14.178;2024-03-06T03:02:44;2.30;99.90
7646;DHT22;3864;48.180;14.178;2024-03-06T03:05:10;2.30;99.90
7646;DHT22;3864;48.180;14.178;2024-03-06T03:07:38;2.30;99.90
7646;DHT22;3864;48.180;14.178;2024-03-06T03:10:06;2.10;99.90
7646;DHT22;3864;48.180;14.178;2024-03-06T03:12:38;2.10;99.90
7646;DHT22;3864;48.180;14.178;2024-03-06T03:15:06;2.20;99.90
7646;DHT22;3864;48.180;14.178;2024-03-06T03:17:33;2.20;99.90
7646;DHT22;3864;48.180;14.178;2024-03-06T03:20:00;2.10;99.90
7646;DHT22;3864;48.180;14.178;2024-03-06T03:22:35;2.10;99.90
7646;DHT22;3864;48.180;14.178;2024-03-06T03:25:06;2.10;99.90
7646;DHT22;3864;48.180;14.178;2024-03-06T03:27:33;2.20;99.90
7646;DHT22;3864;48.180;14.178;2024-03-06T03:30:03;2.30;99.90
7646;DHT22;3864;48.180;14.178;2024-03-06T03:32:30;2.20;99.90
7646;DHT22;3864;48.180;14.178;2024-03-06T03:34:57;2.10;99.90
7646;DHT22;3864;48.180;14.178;2024-03-06T03:37:24;2.10;99.90
7646;DHT22;3864;48.180;14.178;2024-03-06T03:39:51;2.00;99.90
7646;DHT22;3864;48.180;14.178;2024-03-06T03:42:18;1.90;99.90
7646;DHT22;3864;48.180;14.178;2024-03-06T03:44:46;1.90;99.90
7646;DHT22;3864;48.180;14.178;2024-03-06T03:47:14;2.00;99.90
7646;DHT22;3864;48.180;14.178;2024-03-06T03:49:41;2.00;99.90
7646;DHT22;3864;48.180;14.178;2024-03-06T03:52:08;2.10;99.90
7646;DHT22;3864;48.180;14.178;2024-03-06T03:54:35;2.20;99.90
7646;DHT22;3864;48.180;14.178;2024-03-06T03:57:02;2.30;99.90
7646;DHT22;3864;48.180;14.178;2024-03-06T03:59:29;2.30;99.90
7646;DHT22;3864;48.180;14.178;2024-03-06T04:01:56;2.40;99.90
7646;DHT22;3864;48.180;14.178;2024-03-06T04:04:25;2.40;99.90
7646;DHT22;3864;48.180;14.178;2024-03-06T04:06:52;2.40;99.90
7646;DHT22;3864;48.180;14.178;2024-03-06T04:09:19;2.40;99.90
7646;DHT22;3864;48.180;14.178;2024-03-06T04:11:46;2.50;99.90
7646;DHT22;3864;48.180;14.178;2024-03-06T04:14:13;2.60;99.90
7646;DHT22;3864;48.180;14.178;2024-03-06T04:16:40;2.60;99.90
7646;DHT22;3864;48.180;14.178;2024-03-06T04:19:07;2.60;99.90
7646;DHT22;3864;48.180;14.178;2024-03-06T04:21:40;2.70;99.90
7646;DHT22;3864;48.180;14.178;2024-03-06T04:24:08;2.70;99.90
7646;DHT22;3864;48.180;14.178;2024-03-06T04:26:35;2.70;99.90
7646;DHT22;3864;48.180;14.178;2024-03-06T04:29:02;2.70;99.90
7646;DHT22;3864;48.180;14.178;2024-03-06T04:31:29;2.70;99.90
7646;DHT22;3864;48.180;14.178;2024-03-06T04:33:56;2.60;99.90
7646;DHT22;3864;48.180;14.178;2024-03-06T04:36:24;2.70;99.90
7646;DHT22;3864;48.180;14.178;2024-03-06T04:38:52;2.70;99.90
7646;DHT22;3864;48.180;14.178;2024-03-06T04:41:19;2.70;99.90
7646;DHT22;3864;48.180;14.178;2024-03-06T04:43:46;2.70;99.90
7646;DHT22;3864;48.180;14.178;2024-03-06T04:46:13;2.70;99.90
7646;DHT22;3864;48.180;14.178;2024-03-06T04:48:40;2.70;99.90
7646;DHT22;3864;48.180;14.178;2024-03-06T04:51:12;2.70;99.90
7646;DHT22;3864;48.180;14.178;2024-03-06T04:53:39;2.70;99.90
7646;DHT22;3864;48.180;14.178;2024-03-06T04:56:09;2.70;99.90
7646;DHT22;3864;48.180;14.178;2024-03-06T04:58:36;2.70;99.90
7646;DHT22;3864;48.180;14.178;2024-03-06T05:01:04;2.70;99.90
7646;DHT22;3864;48.180;14.178;2024-03-06T05:03:32;2.70;99.90
7646;DHT22;3864;48.180;14.178;2024-03-06T05:05:59;2.60;99.90
7646;DHT22;3864;48.180;14.178;2024-03-06T05:08:26;2.60;99.90
7646;DHT22;3864;48.180;14.178;2024-03-06T05:10:55;2.50;99.90
7646;DHT22;3864;48.180;14.178;2024-03-06T05:13:24;2.40;99.90
7646;DHT22;3864;48.180;14.178;2024-03-06T05:15:51;2.50;99.90
7646;DHT22;3864;48.180;14.178;2024-03-06T05:18:19;2.40;99.90
7646;DHT22;3864;48.180;14.178;2024-03-06T05:20:46;2.50;99.90
7646;DHT22;3864;48.180;14.178;2024-03-06T05:23:13;2.70;99.90
7646;DHT22;3864;48.180;14.178;2024-03-06T05:25:43;3.00;99.90
7646;DHT22;3864;48.180;14.178;2024-03-06T05:28:10;3.10;99.90
7646;DHT22;3864;48.180;14.178;2024-03-06T05:30:39;3.30;99.90
7646;DHT22;3864;48.180;14.178;2024-03-06T05:33:06;3.50;99.90
7646;DHT22;3864;48.180;14.178;2024-03-06T05:35:33;3.50;99.90
7646;DHT22;3864;48.180;14.178;2024-03-06T05:38:01;3.70;99.90
7646;DHT22;3864;48.180;14.178;2024-03-06T05:40:28;3.80;99.90
7646;DHT22;3864;48.180;14.178;2024-03-06T05:42:56;3.90;99.90
7646;DHT22;3864;48.180;14.178;2024-03-06T05:45:23;4.00;99.90
7646;DHT22;3864;48.180;14.178;2024-03-06T05:47:51;4.10;99.90
7646;DHT22;3864;48.180;14.178;2024-03-06T05:50:19;4.20;99.90
7646;DHT22;3864;48.180;14.178;2024-03-06T05:52:46;4.20;99.90
7646;DHT22;3864;48.180;14.178;2024-03-06T05:55:14;4.30;99.90
7646;DHT22;3864;48.180;14.178;2024-03-06T05:57:41;4.40;99.90
7646;DHT22;3864;48.180;14.178;2024-03-06T06:00:12;4.50;99.90
7646;DHT22;3864;48.180;14.178;2024-03-06T06:02:39;4.50;99.90
7646;DHT22;3864;48.180;14.178;2024-03-06T06:05:09;4.60;99.90
7646;DHT22;3864;48.180;14.178;2024-03-06T06:07:36;4.70;99.90
7646;DHT22;3864;48.180;14.178;2024-03-06T06:10:04;4.70;99.90
7646;DHT22;3864;48.180;14.178;2024-03-06T06:12:35;4.70;99.90
7646;DHT22;3864;48.180;14.178;2024-03-06T06:15:03;4.80;99.90
7646;DHT22;3864;48.180;14.178;2024-03-06T06:17:30;4.80;99.90
7646;DHT22;3864;48.180;14.178;2024-03-06T06:19:58;4.90;99.90
7646;DHT22;3864;48.180;14.178;2024-03-06T06:22:28;4.90;99.90
7646;DHT22;3864;48.180;14.178;2024-03-06T06:24:55;4.90;99.90
7646;DHT22;3864;48.180;14.178;2024-03-06T06:27:23;5.00;99.90
7646;DHT22;3864;48.180;14.178;2024-03-06T06:29:51;5.00;99.90
7646;DHT22;3864;48.180;14.178;2024-03-06T06:32:20;5.00;99.90
7646;DHT22;3864;48.180;14.178;2024-03-06T06:34:47;5.10;99.90
7646;DHT22;3864;48.180;14.178;2024-03-06T06:37:14;5.10;99.90
7646;DHT22;3864;48.180;14.178;2024-03-06T06:39:43;5.10;99.90
7646;DHT22;3864;48.180;14.178;2024-03-06T06:42:10;5.20;99.90
7646;DHT22;3864;48.180;14.178;2024-03-06T06:44:38;5.20;99.90
7646;DHT22;3864;48.180;14.178;2024-03-06T06:47:05;5.20;99.90
7646;DHT22;3864;48.180;14.178;2024-03-06T06:49:32;5.20;99.90
7646;DHT22;3864;48.180;14.178;2024-03-06T06:51:59;5.20;99.90
7646;DHT22;3864;48.180;14.178;2024-03-06T06:54:27;5.20;99.90
7646;DHT22;3864;48.180;14.178;2024-03-06T06:56:55;5.20;99.90
7646;DHT22;3864;48.180;14.178;2024-03-06T06:59:22;5.10;99.90
7646;DHT22;3864;48.180;14.178;2024-03-06T07:01:50;5.10;99.90
7646;DHT22;3864;48.180;14.178;2024-03-06T07:04:17;5.10;99.90
7646;DHT22;3864;48.180;14.178;2024-03-06T07:06:45;5.10;99.90
7646;DHT22;3864;48.180;14.178;2024-03-06T07:09:13;5.20;99.90
7646;DHT22;3864;48.180;14.178;2024-03-06T07:11:41;5.30;99.90
7646;DHT22;3864;48.180;14.178;2024-03-06T07:14:12;5.30;99.90
7646;DHT22;3864;48.180;14.178;2024-03-06T07:16:42;5.40;99.90
7646;DHT22;3864;48.180;14.178;2024-03-06T07:19:10;5.40;99.90
7646;DHT22;3864;48.180;14.178;2024-03-06T07:21:37;5.40;99.90
7646;DHT22;3864;48.180;14.178;2024-03-06T07:24:05;5.50;99.90
7646;DHT22;3864;48.180;14.178;2024-03-06T07:26:33;5.60;99.90
7646;DHT22;3864;48.180;14.178;2024-03-06T07:29:01;5.60;99.90
7646;DHT22;3864;48.180;14.178;2024-03-06T07:31:30;5.70;99.90
7646;DHT22;3864;48.180;14.178;2024-03-06T07:33:57;5.70;99.90
7646;DHT22;3864;48.180;14.178;2024-03-06T07:36:24;5.90;99.90
7646;DHT22;3864;48.180;14.178;2024-03-06T07:38:52;5.90;99.90
7646;DHT22;3864;48.180;14.178;2024-03-06T07:41:20;5.90;99.90
7646;DHT22;3864;48.180;14.178;2024-03-06T07:43:47;6.00;99.90
7646;DHT22;3864;48.180;14.178;2024-03-06T07:46:15;6.10;99.90
7646;DHT22;3864;48.180;14.178;2024-03-06T07:48:43;6.20;99.90
7646;DHT22;3864;48.180;14.178;2024-03-06T07:51:11;6.30;99.90
7646;DHT22;3864;48.180;14.178;2024-03-06T07:53:38;6.30;99.90
7646;DHT22;3864;48.180;14.178;2024-03-06T07:56:05;6.30;99.90
7646;DHT22;3864;48.180;14.178;2024-03-06T07:58:33;6.30;99.90
7646;DHT22;3864;48.180;14.178;2024-03-06T08:01:00;6.30;99.90
7646;DHT22;3864;48.180;14.178;2024-03-06T08:03:27;6.40;99.90
7646;DHT22;3864;48.180;14.178;2024-03-06T08:05:56;6.50;99.90
7646;DHT22;3864;48.180;14.178;2024-03-06T08:08:23;6.40;99.90
7646;DHT22;3864;48.180;14.178;2024-03-06T08:10:50;6.40;99.90
7646;DHT22;3864;48.180;14.178;2024-03-06T08:13:18;6.40;99.90
7646;DHT22;3864;48.180;14.178;2024-03-06T08:15:46;6.50;99.90
7646;DHT22;3864;48.180;14.178;2024-03-06T08:18:14;6.50;99.90
7646;DHT22;3864;48.180;14.178;2024-03-06T08:20:41;6.50;99.90
7646;DHT22;3864;48.180;14.178;2024-03-06T08:23:11;6.60;99.90
7646;DHT22;3864;48.180;14.178;2024-03-06T08:25:38;6.60;99.90
7646;DHT22;3864;48.180;14.178;2024-03-06T08:28:06;6.60;99.90
7646;DHT22;3864;48.180;14.178;2024-03-06T08:30:33;6.60;99.90
7646;DHT22;3864;48.180;14.178;2024-03-06T08:33:00;6.60;99.90
7646;DHT22;3864;48.180;14.178;2024-03-06T08:35:27;6.60;99.90
7646;DHT22;3864;48.180;14.178;2024-03-06T08:37:54;6.70;99.90
7646;DHT22;3864;48.180;14.178;2024-03-06T08:40:23;6.80;99.90
7646;DHT22;3864;48.180;14.178;2024-03-06T08:42:52;6.80;99.90
7646;DHT22;3864;48.180;14.178;2024-03-06T08:45:20;6.90;99.90
7646;DHT22;3864;48.180;14.178;2024-03-06T08:47:51;7.00;99.90
7646;DHT22;3864;48.180;14.178;2024-03-06T08:50:20;7.00;99.90
7646;DHT22;3864;48.180;14.178;2024-03-06T08:52:47;7.00;99.90
7646;DHT22;3864;48.180;14.178;2024-03-06T08:55:14;7.10;99.90
7646;DHT22;3864;48.180;14.178;2024-03-06T08:57:43;7.10;99.90
7646;DHT22;3864;48.180;14.178;2024-03-06T09:00:11;7.10;99.90
7646;DHT22;3864;48.180;14.178;2024-03-06T09:02:40;7.30;99.90
7646;DHT22;3864;48.180;14.178;2024-03-06T09:05:08;7.40;99.90
7646;DHT22;3864;48.180;14.178;2024-03-06T09:07:36;7.40;99.90
7646;DHT22;3864;48.180;14.178;2024-03-06T09:10:06;7.40;99.90
7646;DHT22;3864;48.180;14.178;2024-03-06T09:12:34;7.50;99.90
7646;DHT22;3864;48.180;14.178;2024-03-06T09:15:04;7.50;99.90
7646;DHT22;3864;48.180;14.178;2024-03-06T09:17:33;7.60;99.90
7646;DHT22;3864;48.180;14.178;2024-03-06T09:20:00;7.60;99.90
7646;DHT22;3864;48.180;14.178;2024-03-06T09:22:36;7.70;99.90
7646;DHT22;3864;48.180;14.178;2024-03-06T09:25:04;7.80;99.90
7646;DHT22;3864;48.180;14.178;2024-03-06T09:27:32;8.10;99.90
7646;DHT22;3864;48.180;14.178;2024-03-06T09:29:59;8.10;99.90
7646;DHT22;3864;48.180;14.178;2024-03-06T09:32:28;8.10;99.90
7646;DHT22;3864;48.180;14.178;2024-03-06T09:34:58;8.10;99.90
7646;DHT22;3864;48.180;14.178;2024-03-06T09:37:25;8.10;99.90
7646;DHT22;3864;48.180;14.178;2024-03-06T09:39:53;8.20;99.90
7646;DHT22;3864;48.180;14.178;2024-03-06T09:42:21;8.00;99.90
7646;DHT22;3864;48.180;14.178;2024-03-06T09:44:49;8.10;99.90
7646;DHT22;3864;48.180;14.178;2024-03-06T09:47:20;8.30;99.90
7646;DHT22;3864;48.180;14.178;2024-03-06T09:49:52;8.50;99.90
7646;DHT22;3864;48.180;14.178;2024-03-06T09:52:20;8.60;99.90
7646;DHT22;3864;48.180;14.178;2024-03-06T09:54:48;8.70;99.90
7646;DHT22;3864;48.180;14.178;2024-03-06T09:57:17;8.60;99.90
7646;DHT22;3864;48.180;14.178;2024-03-06T09:59:45;8.60;99.90
7646;DHT22;3864;48.180;14.178;2024-03-06T10:02:21;8.30;99.90
7646;DHT22;3864;48.180;14.178;2024-03-06T10:04:54;8.40;99.90
7646;DHT22;3864;48.180;14.178;2024-03-06T10:07:21;8.40;99.90
7646;DHT22;3864;48.180;14.178;2024-03-06T10:09:48;8.50;99.90
7646;DHT22;3864;48.180;14.178;2024-03-06T10:12:17;8.40;99.90
7646;DHT22;3864;48.180;14.178;2024-03-06T10:14:52;8.50;99.90
7646;DHT22;3864;48.180;14.178;2024-03-06T10:17:21;8.40;99.90
7646;DHT22;3864;48.180;14.178;2024-03-06T10:19:49;8.40;99.90
7646;DHT22;3864;48.180;14.178;2024-03-06T10:22:19;8.60;99.90
7646;DHT22;3864;48.180;14.178;2024-03-06T10:24:49;8.70;99.90
7646;DHT22;3864;48.180;14.178;2024-03-06T10:27:17;8.90;99.90
7646;DHT22;3864;48.180;14.178;2024-03-06T10:29:45;9.00;99.90
7646;DHT22;3864;48.180;14.178;2024-03-06T10:32:16;8.90;99.90
7646;DHT22;3864;48.180;14.178;2024-03-06T10:34:45;9.20;99.90
7646;DHT22;3864;48.180;14.178;2024-03-06T10:37:13;9.30;99.90
7646;DHT22;3864;48.180;14.178;2024-03-06T10:39:43;9.60;99.90
7646;DHT22;3864;48.180;14.178;2024-03-06T10:42:13;9.60;99.90
7646;DHT22;3864;48.180;14.178;2024-03-06T10:44:46;9.60;99.90
7646;DHT22;3864;48.180;14.178;2024-03-06T10:47:19;9.10;99.90
7646;DHT22;3864;48.180;14.178;2024-03-06T10:49:47;9.20;99.90
7646;DHT22;3864;48.180;14.178;2024-03-06T10:52:16;8.90;99.90
7646;DHT22;3864;48.180;14.178;2024-03-06T10:54:46;9.40;99.90
7646;DHT22;3864;48.180;14.178;2024-03-06T10:57:15;9.70;99.90
7646;DHT22;3864;48.180;14.178;2024-03-06T10:59:42;9.50;99.90
7646;DHT22;3864;48.180;14.178;2024-03-06T11:02:11;9.60;99.90
7646;DHT22;3864;48.180;14.178;2024-03-06T11:04:40;9.70;99.90
7646;DHT22;3864;48.180;14.178;2024-03-06T11:07:08;9.70;99.90
7646;DHT22;3864;48.180;14.178;2024-03-06T11:09:36;9.70;99.90
7646;DHT22;3864;48.180;14.178;2024-03-06T11:12:08;9.90;99.90
7646;DHT22;3864;48.180;14.178;2024-03-06T11:14:37;10.20;99.90
7646;DHT22;3864;48.180;14.178;2024-03-06T11:17:06;10.30;99.90
7646;DHT22;3864;48.180;14.178;2024-03-06T11:20:08;10.30;99.90
7646;DHT22;3864;48.180;14.178;2024-03-06T11:23:02;10.40;99.90
7646;DHT22;3864;48.180;14.178;2024-03-06T11:26:02;10.50;99.90
7646;DHT22;3864;48.180;14.178;2024-03-06T11:28:32;10.50;99.90
7646;DHT22;3864;48.180;14.178;2024-03-06T11:31:02;10.30;99.90
7646;DHT22;3864;48.180;14.178;2024-03-06T11:33:35;10.20;99.90
7646;DHT22;3864;48.180;14.178;2024-03-06T11:36:16;10.50;99.90
7646;DHT22;3864;48.180;14.178;2024-03-06T11:38:50;10.70;99.90
7646;DHT22;3864;48.180;14.178;2024-03-06T11:41:18;10.40;99.90
7646;DHT22;3864;48.180;14.178;2024-03-06T11:43:49;10.60;99.90
7646;DHT22;3864;48.180;14.178;2024-03-06T11:46:19;10.40;99.90
7646;DHT22;3864;48.180;14.178;2024-03-06T11:48:52;10.10;99.90
7646;DHT22;3864;48.180;14.178;2024-03-06T11:51:21;9.90;99.90
7646;DHT22;3864;48.180;14.178;2024-03-06T11:53:52;9.80;99.90
7646;DHT22;3864;48.180;14.178;2024-03-06T11:56:20;9.80;99.90
7646;DHT22;3864;48.180;14.178;2024-03-06T11:58:49;9.60;99.90
7646;DHT22;3864;48.180;14.178;2024-03-06T12:01:17;9.90;99.90
7646;DHT22;3864;48.180;14.178;2024-03-06T12:03:44;10.10;99.90
7646;DHT22;3864;48.180;14.178;2024-03-06T12:06:11;10.20;99.90
7646;DHT22;3864;48.180;14.178;2024-03-06T12:08:39;10.30;99.90
7646;DHT22;3864;48.180;14.178;2024-03-06T12:11:07;10.60;99.90
7646;DHT22;3864;48.180;14.178;2024-03-06T12:13:34;10.70;99.90
7646;DHT22;3864;48.180;14.178;2024-03-06T12:16:07;11.00;99.90
7646;DHT22;3864;48.180;14.178;2024-03-06T12:18:35;10.90;99.90
7646;DHT22;3864;48.180;14.178;2024-03-06T12:21:02;10.80;99.90
7646;DHT22;3864;48.180;14.178;2024-03-06T12:23:29;11.00;99.90
7646;DHT22;3864;48.180;14.178;2024-03-06T12:26:04;11.10;99.90
7646;DHT22;3864;48.180;14.178;2024-03-06T12:28:32;10.90;99.90
7646;DHT22;3864;48.180;14.178;2024-03-06T12:31:02;11.00;99.90
7646;DHT22;3864;48.180;14.178;2024-03-06T12:33:32;11.10;99.90
7646;DHT22;3864;48.180;14.178;2024-03-06T12:36:03;10.80;99.90
7646;DHT22;3864;48.180;14.178;2024-03-06T12:38:32;10.80;99.90
7646;DHT22;3864;48.180;14.178;2024-03-06T12:40:59;11.10;99.90
7646;DHT22;3864;48.180;14.178;2024-03-06T12:43:27;11.60;99.90
7646;DHT22;3864;48.180;14.178;2024-03-06T12:45:55;11.90;99.90
7646;DHT22;3864;48.180;14.178;2024-03-06T12:48:23;11.50;99.90
7646;DHT22;3864;48.180;14.178;2024-03-06T12:50:53;11.70;99.90
7646;DHT22;3864;48.180;14.178;2024-03-06T12:53:21;11.80;99.90
7646;DHT22;3864;48.180;14.178;2024-03-06T12:55:48;11.30;99.90
7646;DHT22;3864;48.180;14.178;2024-03-06T12:58:16;11.90;99.90
7646;DHT22;3864;48.180;14.178;2024-03-06T13:00:43;11.70;99.90
7646;DHT22;3864;48.180;14.178;2024-03-06T13:03:10;11.10;99.90
7646;DHT22;3864;48.180;14.178;2024-03-06T13:05:37;11.00;99.90
7646;DHT22;3864;48.180;14.178;2024-03-06T13:08:07;10.80;99.90
7646;DHT22;3864;48.180;14.178;2024-03-06T13:10:34;11.20;99.90
7646;DHT22;3864;48.180;14.178;2024-03-06T13:13:02;11.40;99.90
7646;DHT22;3864;48.180;14.178;2024-03-06T13:15:31;11.50;99.90
7646;DHT22;3864;48.180;14.178;2024-03-06T13:17:59;11.50;99.90
7646;DHT22;3864;48.180;14.178;2024-03-06T13:20:29;11.00;99.90
7646;DHT22;3864;48.180;14.178;2024-03-06T13:22:56;10.80;99.90
7646;DHT22;3864;48.180;14.178;2024-03-06T13:25:25;11.10;99.90
7646;DHT22;3864;48.180;14.178;2024-03-06T13:27:52;11.30;99.90
7646;DHT22;3864;48.180;14.178;2024-03-06T13:30:20;11.20;99.90
7646;DHT22;3864;48.180;14.178;2024-03-06T13:32:48;11.40;99.90
7646;DHT22;3864;48.180;14.178;2024-03-06T13:35:16;11.50;99.90
7646;DHT22;3864;48.180;14.178;2024-03-06T13:37:43;11.60;99.90
7646;DHT22;3864;48.180;14.178;2024-03-06T13:40:12;11.60;99.90
7646;DHT22;3864;48.180;14.178;2024-03-06T13:42:41;11.90;99.90
7646;DHT22;3864;48.180;14.178;2024-03-06T13:45:09;11.90;99.90
7646;DHT22;3864;48.180;14.178;2024-03-06T13:47:37;11.80;99.90
7646;DHT22;3864;48.180;14.178;2024-03-06T13:50:07;12.00;99.90
7646;DHT22;3864;48.180;14.178;2024-03-06T13:52:35;11.50;99.90
7646;DHT22;3864;48.180;14.178;2024-03-06T13:55:03;11.40;99.90
7646;DHT22;3864;48.180;14.178;2024-03-06T13:57:31;11.20;99.90
7646;DHT22;3864;48.180;14.178;2024-03-06T14:00:02;11.30;99.90
7646;DHT22;3864;48.180;14.178;2024-03-06T14:02:31;11.20;99.90
7646;DHT22;3864;48.180;14.178;2024-03-06T14:04:58;11.50;99.90
7646;DHT22;3864;48.180;14.178;2024-03-06T14:07:25;11.50;99.90
7646;DHT22;3864;48.180;14.178;2024-03-06T14:09:53;11.60;99.90
7646;DHT22;3864;48.180;14.178;2024-03-06T14:12:22;11.10;99.90
7646;DHT22;3864;48.180;14.178;2024-03-06T14:14:50;10.90;99.90
7646;DHT22;3864;48.180;14.178;2024-03-06T14:17:21;10.60;99.90
7646;DHT22;3864;48.180;14.178;2024-03-06T14:19:48;10.60;99.90
7646;DHT22;3864;48.180;14.178;2024-03-06T14:22:15;10.40;99.90
7646;DHT22;3864;48.180;14.178;2024-03-06T14:24:42;10.50;99.90
7646;DHT22;3864;48.180;14.178;2024-03-06T14:27:10;10.60;99.90
7646;DHT22;3864;48.180;14.178;2024-03-06T14:29:37;10.60;99.90
7646;DHT22;3864;48.180;14.178;2024-03-06T14:32:06;10.50;99.90
7646;DHT22;3864;48.180;14.178;2024-03-06T14:34:35;10.20;99.90
7646;DHT22;3864;48.180;14.178;2024-03-06T14:37:03;10.10;99.90
7646;DHT22;3864;48.180;14.178;2024-03-06T14:39:31;10.10;99.90
7646;DHT22;3864;48.180;14.178;2024-03-06T14:41:58;10.20;99.90
7646;DHT22;3864;48.180;14.178;2024-03-06T14:44:25;10.20;99.90
7646;DHT22;3864;48.180;14.178;2024-03-06T14:46:53;10.20;99.90
7646;DHT22;3864;48.180;14.178;2024-03-06T14:49:22;10.20;99.90
7646;DHT22;3864;48.180;14.178;2024-03-06T14:51:51;10.20;99.90
7646;DHT22;3864;48.180;14.178;2024-03-06T14:54:19;10.20;99.90
7646;DHT22;3864;48.180;14.178;2024-03-06T14:56:48;10.00;99.90
7646;DHT22;3864;48.180;14.178;2024-03-06T14:59:15;10.00;99.90
7646;DHT22;3864;48.180;14.178;2024-03-06T15:01:42;10.00;99.90
7646;DHT22;3864;48.180;14.178;2024-03-06T15:04:10;10.00;99.90
7646;DHT22;3864;48.180;14.178;2024-03-06T15:06:38;10.00;99.90
7646;DHT22;3864;48.180;14.178;2024-03-06T15:09:08;10.10;99.90
7646;DHT22;3864;48.180;14.178;2024-03-06T15:11:39;10.10;99.90
7646;DHT22;3864;48.180;14.178;2024-03-06T15:14:07;10.10;99.90
7646;DHT22;3864;48.180;14.178;2024-03-06T15:16:36;10.10;99.90
7646;DHT22;3864;48.180;14.178;2024-03-06T15:19:03;10.10;99.90
7646;DHT22;3864;48.180;14.178;2024-03-06T15:21:31;10.00;99.90
7646;DHT22;3864;48.180;14.178;2024-03-06T15:23:58;9.90;99.90
7646;DHT22;3864;48.180;14.178;2024-03-06T15:26:28;9.80;99.90
7646;DHT22;3864;48.180;14.178;2024-03-06T15:28:56;9.90;99.90
7646;DHT22;3864;48.180;14.178;2024-03-06T15:31:23;9.80;99.90
7646;DHT22;3864;48.180;14.178;2024-03-06T15:33:53;9.60;99.90
7646;DHT22;3864;48.180;14.178;2024-03-06T15:36:20;9.50;99.90
7646;DHT22;3864;48.180;14.178;2024-03-06T15:38:47;9.40;99.90
7646;DHT22;3864;48.180;14.178;2024-03-06T15:41:17;9.30;99.90
7646;DHT22;3864;48.180;14.178;2024-03-06T15:43:48;9.30;99.90
7646;DHT22;3864;48.180;14.178;2024-03-06T15:46:15;9.20;99.90
7646;DHT22;3864;48.180;14.178;2024-03-06T15:48:43;9.20;99.90
7646;DHT22;3864;48.180;14.178;2024-03-06T15:51:10;9.10;99.90
7646;DHT22;3864;48.180;14.178;2024-03-06T15:53:39;9.00;99.90
7646;DHT22;3864;48.180;14.178;2024-03-06T15:56:06;9.00;99.90
7646;DHT22;3864;48.180;14.178;2024-03-06T15:58:36;8.90;99.90
7646;DHT22;3864;48.180;14.178;2024-03-06T16:01:05;8.80;99.90
7646;DHT22;3864;48.180;14.178;2024-03-06T16:03:32;8.80;99.90